sensor_id;sensor_type;location;lat;lon;timestamp;P1;durP1;ratioP1;P2;durP2;ratioP2
53867;SDS011;41577;47.470;19.080;2023-02-05T00:00:03;8.20;;;3.85;;
53867;SDS011;41577;47.470;19.080;2023-02-05T00:00:16;9.07;;;3.72;;
53867;SDS011;41577;47.470;19.080;2023-02-05T00:00:27;8.95;;;3.80;;
53867;SDS011;41577;47.470;19.080;2023-02-05T00:00:38;7.82;;;3.70;;
53867;SDS011;41577;47.470;19.080;2023-02-05T00:00:48;6.27;;;3.50;;
53867;SDS011;41577;47.470;19.080;2023-02-05T00:01:00;6.75;;;3.85;;
53867;SDS011;41577;47.470;19.080;2023-02-05T00:01:11;6.60;;;4.05;;
53867;SDS011;41577;47.470;19.080;2023-02-05T00:01:21;7.30;;;4.45;;
53867;SDS011;41577;47.470;19.080;2023-02-05T00:01:32;6.38;;;4.35;;
53867;SDS011;41577;47.470;19.080;2023-02-05T00:01:43;6.20;;;4.23;;
53867;SDS011;41577;47.470;19.080;2023-02-05T00:01:54;5.83;;;3.77;;
53867;SDS011;41577;47.470;19.080;2023-02-05T00:02:05;5.30;;;3.53;;
53867;SDS011;41577;47.470;19.080;2023-02-05T00:02:16;4.37;;;3.63;;
53867;SDS011;41577;47.470;19.080;2023-02-05T00:02:27;4.65;;;3.67;;
53867;SDS011;41577;47.470;19.080;2023-02-05T00:02:38;4.95;;;3.75;;
53867;SDS011;41577;47.470;19.080;2023-02-05T00:02:49;5.47;;;3.65;;
53867;SDS011;41577;47.470;19.080;2023-02-05T00:03:00;5.70;;;3.90;;
53867;SDS011;41577;47.470;19.080;2023-02-05T00:03:11;5.93;;;3.83;;
53867;SDS011;41577;47.470;19.080;2023-02-05T00:03:22;5.30;;;3.72;;
53867;SDS011;41577;47.470;19.080;2023-02-05T00:03:34;5.35;;;3.70;;
53867;SDS011;41577;47.470;19.080;2023-02-05T00:03:46;5.53;;;3.85;;
53867;SDS011;41577;47.470;19.080;2023-02-05T00:03:57;4.95;;;4.00;;
53867;SDS011;41577;47.470;19.080;2023-02-05T00:04:10;5.20;;;4.03;;
53867;SDS011;41577;47.470;19.080;2023-02-05T00:04:21;5.20;;;3.88;;
53867;SDS011;41577;47.470;19.080;2023-02-05T00:04:31;6.03;;;3.77;;
53867;SDS011;41577;47.470;19.080;2023-02-05T00:04:42;6.40;;;4.05;;
53867;SDS011;41577;47.470;19.080;2023-02-05T00:04:55;5.32;;;4.10;;
53867;SDS011;41577;47.470;19.080;2023-02-05T00:05:06;5.07;;;3.92;;
53867;SDS011;41577;47.470;19.080;2023-02-05T00:05:17;4.65;;;3.80;;
53867;SDS011;41577;47.470;19.080;2023-02-05T00:05:28;5.20;;;3.95;;
53867;SDS011;41577;47.470;19.080;2023-02-05T00:05:39;5.93;;;3.92;;
53867;SDS011;41577;47.470;19.080;2023-02-05T00:05:50;7.67;;;3.90;;
53867;SDS011;41577;47.470;19.080;2023-02-05T00:06:01;8.80;;;3.90;;
53867;SDS011;41577;47.470;19.080;2023-02-05T00:06:12;7.82;;;3.60;;
53867;SDS011;41577;47.470;19.080;2023-02-05T00:06:23;6.15;;;3.58;;
53867;SDS011;41577;47.470;19.080;2023-02-05T00:06:34;5.43;;;3.85;;
53867;SDS011;41577;47.470;19.080;2023-02-05T00:06:45;5.97;;;4.10;;
53867;SDS011;41577;47.470;19.080;2023-02-05T00:06:56;5.90;;;4.13;;
53867;SDS011;41577;47.470;19.080;2023-02-05T00:07:08;5.13;;;4.05;;
53867;SDS011;41577;47.470;19.080;2023-02-05T00:07:18;5.70;;;4.15;;
53867;SDS011;41577;47.470;19.080;2023-02-05T00:07:29;6.47;;;4.15;;
53867;SDS011;41577;47.470;19.080;2023-02-05T00:07:41;6.78;;;4.10;;
53867;SDS011;41577;47.470;19.080;2023-02-05T00:07:52;7.13;;;3.88;;
53867;SDS011;41577;47.470;19.080;2023-02-05T00:08:03;7.28;;;4.03;;
53867;SDS011;41577;47.470;19.080;2023-02-05T00:08:14;8.50;;;4.05;;
53867;SDS011;41577;47.470;19.080;2023-02-05T00:08:25;8.00;;;4.00;;
53867;SDS011;41577;47.470;19.080;2023-02-05T00:08:37;10.95;;;3.78;;
53867;SDS011;41577;47.470;19.080;2023-02-05T00:08:48;9.85;;;3.83;;
53867;SDS011;41577;47.470;19.080;2023-02-05T00:08:59;10.27;;;4.00;;
53867;SDS011;41577;47.470;19.080;2023-02-05T00:09:10;7.15;;;4.15;;
53867;SDS011;41577;47.470;19.080;2023-02-05T00:09:22;7.60;;;3.97;;
53867;SDS011;41577;47.470;19.080;2023-02-05T00:09:34;7.25;;;3.80;;
53867;SDS011;41577;47.470;19.080;2023-02-05T00:09:44;7.57;;;3.72;;
53867;SDS011;41577;47.470;19.080;2023-02-05T00:09:55;6.63;;;3.60;;
53867;SDS011;41577;47.470;19.080;2023-02-05T00:10:06;6.63;;;3.80;;
53867;SDS011;41577;47.470;19.080;2023-02-05T00:10:17;5.75;;;3.90;;
53867;SDS011;41577;47.470;19.080;2023-02-05T00:10:28;5.43;;;3.97;;
53867;SDS011;41577;47.470;19.080;2023-02-05T00:10:39;4.47;;;3.63;;
53867;SDS011;41577;47.470;19.080;2023-02-05T00:10:50;5.05;;;3.67;;
53867;SDS011;41577;47.470;19.080;2023-02-05T00:11:01;5.85;;;3.80;;
53867;SDS011;41577;47.470;19.080;2023-02-05T00:11:12;6.60;;;3.85;;
53867;SDS011;41577;47.470;19.080;2023-02-05T00:11:22;6.90;;;4.00;;
53867;SDS011;41577;47.470;19.080;2023-02-05T00:11:34;6.90;;;4.00;;
53867;SDS011;41577;47.470;19.080;2023-02-05T00:11:45;8.15;;;4.30;;
53867;SDS011;41577;47.470;19.080;2023-02-05T00:11:56;8.43;;;4.40;;
53867;SDS011;41577;47.470;19.080;2023-02-05T00:12:08;9.20;;;4.30;;
53867;SDS011;41577;47.470;19.080;2023-02-05T00:12:19;9.40;;;4.32;;
53867;SDS011;41577;47.470;19.080;2023-02-05T00:12:30;7.85;;;3.80;;
53867;SDS011;41577;47.470;19.080;2023-02-05T00:12:42;6.38;;;3.78;;
53867;SDS011;41577;47.470;19.080;2023-02-05T00:12:52;5.93;;;3.80;;
53867;SDS011;41577;47.470;19.080;2023-02-05T00:13:03;6.55;;;4.00;;
53867;SDS011;41577;47.470;19.080;2023-02-05T00:13:14;6.75;;;4.10;;
53867;SDS011;41577;47.470;19.080;2023-02-05T00:13:25;9.57;;;4.00;;
53867;SDS011;41577;47.470;19.080;2023-02-05T00:13:36;9.02;;;3.80;;
53867;SDS011;41577;47.470;19.080;2023-02-05T00:13:50;6.10;;;3.75;;
53867;SDS011;41577;47.470;19.080;2023-02-05T00:14:00;6.50;;;3.95;;
53867;SDS011;41577;47.470;19.080;2023-02-05T00:14:12;7.63;;;4.20;;
53867;SDS011;41577;47.470;19.080;2023-02-05T00:14:23;7.18;;;4.10;;
53867;SDS011;41577;47.470;19.080;2023-02-05T00:14:35;6.47;;;4.20;;
53867;SDS011;41577;47.470;19.080;2023-02-05T00:14:46;6.28;;;4.10;;
53867;SDS011;41577;47.470;19.080;2023-02-05T00:14:57;5.95;;;4.18;;
53867;SDS011;41577;47.470;19.080;2023-02-05T00:15:08;5.60;;;4.20;;
53867;SDS011;41577;47.470;19.080;2023-02-05T00:15:19;6.57;;;4.32;;
53867;SDS011;41577;47.470;19.080;2023-02-05T00:15:30;6.95;;;3.97;;
53867;SDS011;41577;47.470;19.080;2023-02-05T00:15:42;6.65;;;3.83;;
53867;SDS011;41577;47.470;19.080;2023-02-05T00:15:52;6.32;;;3.83;;
53867;SDS011;41577;47.470;19.080;2023-02-05T00:16:05;6.90;;;3.90;;
53867;SDS011;41577;47.470;19.080;2023-02-05T00:16:18;7.78;;;3.88;;
53867;SDS011;41577;47.470;19.080;2023-02-05T00:16:30;7.94;;;3.76;;
53867;SDS011;41577;47.470;19.080;2023-02-05T00:16:43;5.38;;;3.53;;
53867;SDS011;41577;47.470;19.080;2023-02-05T00:16:54;5.50;;;3.47;;
53867;SDS011;41577;47.470;19.080;2023-02-05T00:17:05;5.53;;;3.50;;
53867;SDS011;41577;47.470;19.080;2023-02-05T00:17:16;5.10;;;3.58;;
53867;SDS011;41577;47.470;19.080;2023-02-05T00:17:28;5.30;;;3.88;;
53867;SDS011;41577;47.470;19.080;2023-02-05T00:17:38;5.45;;;3.90;;
53867;SDS011;41577;47.470;19.080;2023-02-05T00:17:50;5.13;;;3.75;;
53867;SDS011;41577;47.470;19.080;2023-02-05T00:18:01;4.70;;;3.45;;
53867;SDS011;41577;47.470;19.080;2023-02-05T00:18:13;5.30;;;3.60;;
53867;SDS011;41577;47.470;19.080;2023-02-05T00:18:24;5.68;;;3.70;;
53867;SDS011;41577;47.470;19.080;2023-02-05T00:18:35;5.85;;;3.78;;
53867;SDS011;41577;47.470;19.080;2023-02-05T00:18:48;5.63;;;3.65;;
53867;SDS011;41577;47.470;19.080;2023-02-05T00:18:59;5.57;;;3.80;;
53867;SDS011;41577;47.470;19.080;2023-02-05T00:19:11;5.43;;;3.72;;
53867;SDS011;41577;47.470;19.080;2023-02-05T00:19:22;5.55;;;3.60;;
53867;SDS011;41577;47.470;19.080;2023-02-05T00:19:34;5.70;;;3.58;;
53867;SDS011;41577;47.470;19.080;2023-02-05T00:19:44;6.30;;;3.75;;
53867;SDS011;41577;47.470;19.080;2023-02-05T00:19:55;5.78;;;3.80;;
53867;SDS011;41577;47.470;19.080;2023-02-05T00:20:06;6.63;;;4.05;;
53867;SDS011;41577;47.470;19.080;2023-02-05T00:20:18;6.35;;;3.75;;
53867;SDS011;41577;47.470;19.080;2023-02-05T00:20:30;6.60;;;3.72;;
53867;SDS011;41577;47.470;19.080;2023-02-05T00:20:41;6.38;;;3.90;;
53867;SDS011;41577;47.470;19.080;2023-02-05T00:20:52;8.88;;;4.00;;
53867;SDS011;41577;47.470;19.080;2023-02-05T00:21:03;8.95;;;3.72;;
53867;SDS011;41577;47.470;19.080;2023-02-05T00:21:15;7.60;;;3.58;;
53867;SDS011;41577;47.470;19.080;2023-02-05T00:21:27;6.15;;;3.40;;
53867;SDS011;41577;47.470;19.080;2023-02-05T00:21:38;5.50;;;3.47;;
53867;SDS011;41577;47.470;19.080;2023-02-05T00:21:49;5.35;;;3.58;;
53867;SDS011;41577;47.470;19.080;2023-02-05T00:22:01;6.72;;;3.80;;
53867;SDS011;41577;47.470;19.080;2023-02-05T00:22:12;7.15;;;3.80;;
53867;SDS011;41577;47.470;19.080;2023-02-05T00:22:23;7.43;;;3.88;;
53867;SDS011;41577;47.470;19.080;2023-02-05T00:22:35;7.85;;;3.83;;
53867;SDS011;41577;47.470;19.080;2023-02-05T00:22:46;7.38;;;3.60;;
53867;SDS011;41577;47.470;19.080;2023-02-05T00:22:56;7.53;;;3.67;;
53867;SDS011;41577;47.470;19.080;2023-02-05T00:23:07;5.53;;;3.67;;
53867;SDS011;41577;47.470;19.080;2023-02-05T00:23:18;6.55;;;3.78;;
53867;SDS011;41577;47.470;19.080;2023-02-05T00:23:29;6.60;;;4.05;;
53867;SDS011;41577;47.470;19.080;2023-02-05T00:23:40;6.00;;;4.18;;
53867;SDS011;41577;47.470;19.080;2023-02-05T00:23:52;7.00;;;4.07;;
53867;SDS011;41577;47.470;19.080;2023-02-05T00:24:03;7.65;;;3.90;;
53867;SDS011;41577;47.470;19.080;2023-02-05T00:24:14;7.65;;;3.80;;
53867;SDS011;41577;47.470;19.080;2023-02-05T00:24:25;5.65;;;3.60;;
53867;SDS011;41577;47.470;19.080;2023-02-05T00:24:36;4.82;;;3.67;;
53867;SDS011;41577;47.470;19.080;2023-02-05T00:24:48;4.43;;;3.40;;
53867;SDS011;41577;47.470;19.080;2023-02-05T00:24:59;5.15;;;3.28;;
53867;SDS011;41577;47.470;19.080;2023-02-05T00:25:10;5.13;;;3.20;;
53867;SDS011;41577;47.470;19.080;2023-02-05T00:25:21;6.25;;;3.55;;
53867;SDS011;41577;47.470;19.080;2023-02-05T00:25:33;5.97;;;3.65;;
53867;SDS011;41577;47.470;19.080;2023-02-05T00:25:44;6.88;;;4.00;;
53867;SDS011;41577;47.470;19.080;2023-02-05T00:25:56;6.70;;;4.03;;
53867;SDS011;41577;47.470;19.080;2023-02-05T00:26:08;6.72;;;3.90;;
53867;SDS011;41577;47.470;19.080;2023-02-05T00:26:20;4.97;;;3.55;;
53867;SDS011;41577;47.470;19.080;2023-02-05T00:26:31;4.88;;;3.50;;
53867;SDS011;41577;47.470;19.080;2023-02-05T00:26:42;6.75;;;3.25;;
53867;SDS011;41577;47.470;19.080;2023-02-05T00:26:54;7.38;;;3.20;;
53867;SDS011;41577;47.470;19.080;2023-02-05T00:27:05;8.35;;;3.47;;
53867;SDS011;41577;47.470;19.080;2023-02-05T00:27:16;6.15;;;3.58;;
53867;SDS011;41577;47.470;19.080;2023-02-05T00:27:27;5.95;;;3.58;;
53867;SDS011;41577;47.470;19.080;2023-02-05T00:27:39;5.20;;;3.45;;
53867;SDS011;41577;47.470;19.080;2023-02-05T00:27:50;5.13;;;3.22;;
53867;SDS011;41577;47.470;19.080;2023-02-05T00:28:02;4.90;;;3.30;;
53867;SDS011;41577;47.470;19.080;2023-02-05T00:28:13;5.43;;;3.63;;
53867;SDS011;41577;47.470;19.080;2023-02-05T00:28:24;6.28;;;3.85;;
53867;SDS011;41577;47.470;19.080;2023-02-05T00:28:36;5.95;;;3.78;;
53867;SDS011;41577;47.470;19.080;2023-02-05T00:28:47;5.72;;;3.58;;
53867;SDS011;41577;47.470;19.080;2023-02-05T00:28:58;5.38;;;3.35;;
53867;SDS011;41577;47.470;19.080;2023-02-05T00:29:11;7.10;;;3.55;;
53867;SDS011;41577;47.470;19.080;2023-02-05T00:29:23;7.80;;;3.53;;
53867;SDS011;41577;47.470;19.080;2023-02-05T00:29:34;8.25;;;3.85;;
53867;SDS011;41577;47.470;19.080;2023-02-05T00:29:45;6.40;;;3.75;;
53867;SDS011;41577;47.470;19.080;2023-02-05T00:29:57;5.32;;;3.80;;
53867;SDS011;41577;47.470;19.080;2023-02-05T00:30:08;5.40;;;3.67;;
53867;SDS011;41577;47.470;19.080;2023-02-05T00:30:20;5.18;;;3.80;;
53867;SDS011;41577;47.470;19.080;2023-02-05T00:30:30;6.35;;;4.03;;
53867;SDS011;41577;47.470;19.080;2023-02-05T00:30:41;6.97;;;3.92;;
53867;SDS011;41577;47.470;19.080;2023-02-05T00:30:52;8.80;;;4.15;;
53867;SDS011;41577;47.470;19.080;2023-02-05T00:31:05;8.05;;;3.88;;
53867;SDS011;41577;47.470;19.080;2023-02-05T00:31:18;5.00;;;3.65;;
53867;SDS011;41577;47.470;19.080;2023-02-05T00:31:30;4.55;;;3.47;;
53867;SDS011;41577;47.470;19.080;2023-02-05T00:31:41;3.90;;;3.50;;
53867;SDS011;41577;47.470;19.080;2023-02-05T00:31:52;4.03;;;3.47;;
53867;SDS011;41577;47.470;19.080;2023-02-05T00:32:04;4.88;;;3.72;;
53867;SDS011;41577;47.470;19.080;2023-02-05T00:32:15;6.20;;;3.67;;
53867;SDS011;41577;47.470;19.080;2023-02-05T00:32:26;6.90;;;3.83;;
53867;SDS011;41577;47.470;19.080;2023-02-05T00:32:38;6.28;;;4.00;;
53867;SDS011;41577;47.470;19.080;2023-02-05T00:32:49;5.63;;;4.00;;
53867;SDS011;41577;47.470;19.080;2023-02-05T00:33:01;5.93;;;3.92;;
53867;SDS011;41577;47.470;19.080;2023-02-05T00:33:11;5.72;;;3.55;;
53867;SDS011;41577;47.470;19.080;2023-02-05T00:33:22;6.10;;;3.60;;
53867;SDS011;41577;47.470;19.080;2023-02-05T00:33:33;6.90;;;3.22;;
53867;SDS011;41577;47.470;19.080;2023-02-05T00:33:44;8.40;;;3.47;;
53867;SDS011;41577;47.470;19.080;2023-02-05T00:33:55;8.15;;;3.40;;
53867;SDS011;41577;47.470;19.080;2023-02-05T00:34:08;6.30;;;3.67;;
53867;SDS011;41577;47.470;19.080;2023-02-05T00:34:21;5.22;;;3.60;;
53867;SDS011;41577;47.470;19.080;2023-02-05T00:34:32;4.93;;;3.47;;
53867;SDS011;41577;47.470;19.080;2023-02-05T00:34:44;5.88;;;3.55;;
53867;SDS011;41577;47.470;19.080;2023-02-05T00:34:55;6.60;;;3.85;;
53867;SDS011;41577;47.470;19.080;2023-02-05T00:35:06;6.00;;;3.80;;
53867;SDS011;41577;47.470;19.080;2023-02-05T00:35:17;5.43;;;3.72;;
53867;SDS011;41577;47.470;19.080;2023-02-05T00:35:29;7.55;;;3.78;;
53867;SDS011;41577;47.470;19.080;2023-02-05T00:35:40;9.30;;;4.20;;
53867;SDS011;41577;47.470;19.080;2023-02-05T00:35:54;7.57;;;3.97;;
53867;SDS011;41577;47.470;19.080;2023-02-05T00:36:05;5.97;;;3.58;;
53867;SDS011;41577;47.470;19.080;2023-02-05T00:36:18;6.25;;;3.60;;
53867;SDS011;41577;47.470;19.080;2023-02-05T00:36:29;5.80;;;3.58;;
53867;SDS011;41577;47.470;19.080;2023-02-05T00:36:40;4.82;;;3.47;;
53867;SDS011;41577;47.470;19.080;2023-02-05T00:36:52;5.03;;;3.42;;
53867;SDS011;41577;47.470;19.080;2023-02-05T00:37:03;5.25;;;3.55;;
53867;SDS011;41577;47.470;19.080;2023-02-05T00:37:14;5.53;;;3.50;;
53867;SDS011;41577;47.470;19.080;2023-02-05T00:37:25;7.13;;;3.67;;
53867;SDS011;41577;47.470;19.080;2023-02-05T00:37:36;7.05;;;3.67;;
53867;SDS011;41577;47.470;19.080;2023-02-05T00:37:47;8.48;;;3.60;;
53867;SDS011;41577;47.470;19.080;2023-02-05T00:38:00;7.60;;;3.60;;
53867;SDS011;41577;47.470;19.080;2023-02-05T00:38:11;6.38;;;3.47;;
53867;SDS011;41577;47.470;19.080;2023-02-05T00:38:23;4.95;;;3.28;;
53867;SDS011;41577;47.470;19.080;2023-02-05T00:38:34;3.58;;;3.00;;
53867;SDS011;41577;47.470;19.080;2023-02-05T00:38:45;3.88;;;2.90;;
53867;SDS011;41577;47.470;19.080;2023-02-05T00:38:56;4.32;;;3.10;;
53867;SDS011;41577;47.470;19.080;2023-02-05T00:39:07;5.15;;;3.10;;
53867;SDS011;41577;47.470;19.080;2023-02-05T00:39:18;8.35;;;3.10;;
53867;SDS011;41577;47.470;19.080;2023-02-05T00:39:31;8.93;;;3.13;;
53867;SDS011;41577;47.470;19.080;2023-02-05T00:39:42;8.82;;;3.28;;
53867;SDS011;41577;47.470;19.080;2023-02-05T00:39:53;6.35;;;3.60;;
53867;SDS011;41577;47.470;19.080;2023-02-05T00:40:04;7.50;;;3.70;;
53867;SDS011;41577;47.470;19.080;2023-02-05T00:40:16;8.30;;;3.97;;
53867;SDS011;41577;47.470;19.080;2023-02-05T00:40:28;7.22;;;3.78;;
53867;SDS011;41577;47.470;19.080;2023-02-05T00:40:39;5.82;;;3.55;;
53867;SDS011;41577;47.470;19.080;2023-02-05T00:40:50;5.35;;;3.47;;
53867;SDS011;41577;47.470;19.080;2023-02-05T00:41:01;4.55;;;3.30;;
53867;SDS011;41577;47.470;19.080;2023-02-05T00:41:12;5.63;;;3.25;;
53867;SDS011;41577;47.470;19.080;2023-02-05T00:41:24;6.72;;;3.30;;
53867;SDS011;41577;47.470;19.080;2023-02-05T00:41:35;8.70;;;3.38;;
53867;SDS011;41577;47.470;19.080;2023-02-05T00:41:49;6.53;;;3.17;;
53867;SDS011;41577;47.470;19.080;2023-02-05T00:42:00;5.60;;;2.97;;
53867;SDS011;41577;47.470;19.080;2023-02-05T00:42:12;3.40;;;2.70;;
53867;SDS011;41577;47.470;19.080;2023-02-05T00:42:23;4.18;;;2.80;;
53867;SDS011;41577;47.470;19.080;2023-02-05T00:42:33;4.53;;;2.90;;
53867;SDS011;41577;47.470;19.080;2023-02-05T00:42:45;5.68;;;3.00;;
53867;SDS011;41577;47.470;19.080;2023-02-05T00:42:56;6.78;;;3.28;;
53867;SDS011;41577;47.470;19.080;2023-02-05T00:43:07;6.50;;;3.40;;
53867;SDS011;41577;47.470;19.080;2023-02-05T00:43:19;5.25;;;3.47;;
53867;SDS011;41577;47.470;19.080;2023-02-05T00:43:30;4.40;;;3.45;;
53867;SDS011;41577;47.470;19.080;2023-02-05T00:43:41;5.55;;;3.67;;
53867;SDS011;41577;47.470;19.080;2023-02-05T00:43:53;5.85;;;3.47;;
53867;SDS011;41577;47.470;19.080;2023-02-05T00:44:04;6.95;;;3.38;;
53867;SDS011;41577;47.470;19.080;2023-02-05T00:44:16;6.22;;;3.40;;
53867;SDS011;41577;47.470;19.080;2023-02-05T00:44:27;6.07;;;3.28;;
53867;SDS011;41577;47.470;19.080;2023-02-05T00:44:38;5.53;;;3.35;;
53867;SDS011;41577;47.470;19.080;2023-02-05T00:44:51;6.22;;;3.58;;
53867;SDS011;41577;47.470;19.080;2023-02-05T00:45:01;5.95;;;3.63;;
53867;SDS011;41577;47.470;19.080;2023-02-05T00:45:13;5.30;;;3.50;;
53867;SDS011;41577;47.470;19.080;2023-02-05T00:45:23;5.88;;;3.30;;
53867;SDS011;41577;47.470;19.080;2023-02-05T00:45:35;5.22;;;3.30;;
53867;SDS011;41577;47.470;19.080;2023-02-05T00:45:46;4.80;;;3.25;;
53867;SDS011;41577;47.470;19.080;2023-02-05T00:45:57;4.30;;;3.45;;
53867;SDS011;41577;47.470;19.080;2023-02-05T00:46:08;4.53;;;3.20;;
53867;SDS011;41577;47.470;19.080;2023-02-05T00:46:20;4.90;;;3.15;;
53867;SDS011;41577;47.470;19.080;2023-02-05T00:46:31;4.88;;;3.17;;
53867;SDS011;41577;47.470;19.080;2023-02-05T00:46:42;5.32;;;3.58;;
53867;SDS011;41577;47.470;19.080;2023-02-05T00:46:53;5.25;;;3.53;;
53867;SDS011;41577;47.470;19.080;2023-02-05T00:47:05;5.00;;;3.50;;
53867;SDS011;41577;47.470;19.080;2023-02-05T00:47:16;6.90;;;3.60;;
53867;SDS011;41577;47.470;19.080;2023-02-05T00:47:27;7.80;;;3.58;;
53867;SDS011;41577;47.470;19.080;2023-02-05T00:47:38;8.13;;;3.55;;
53867;SDS011;41577;47.470;19.080;2023-02-05T00:47:49;7.20;;;3.30;;
53867;SDS011;41577;47.470;19.080;2023-02-05T00:48:00;6.22;;;3.45;;
53867;SDS011;41577;47.470;19.080;2023-02-05T00:48:11;5.80;;;3.42;;
53867;SDS011;41577;47.470;19.080;2023-02-05T00:48:23;4.72;;;3.17;;
53867;SDS011;41577;47.470;19.080;2023-02-05T00:48:34;4.53;;;3.08;;
53867;SDS011;41577;47.470;19.080;2023-02-05T00:48:44;4.00;;;3.07;;
53867;SDS011;41577;47.470;19.080;2023-02-05T00:48:56;4.80;;;3.33;;
53867;SDS011;41577;47.470;19.080;2023-02-05T00:49:07;5.40;;;3.50;;
53867;SDS011;41577;47.470;19.080;2023-02-05T00:49:18;5.70;;;3.42;;
53867;SDS011;41577;47.470;19.080;2023-02-05T00:49:30;5.43;;;3.28;;
53867;SDS011;41577;47.470;19.080;2023-02-05T00:49:41;5.85;;;3.60;;
53867;SDS011;41577;47.470;19.080;2023-02-05T00:49:52;5.38;;;3.68;;
53867;SDS011;41577;47.470;19.080;2023-02-05T00:50:03;4.60;;;3.47;;
53867;SDS011;41577;47.470;19.080;2023-02-05T00:50:14;5.20;;;2.88;;
53867;SDS011;41577;47.470;19.080;2023-02-05T00:50:25;5.18;;;2.75;;
53867;SDS011;41577;47.470;19.080;2023-02-05T00:50:38;5.10;;;3.17;;
53867;SDS011;41577;47.470;19.080;2023-02-05T00:50:49;9.52;;;3.55;;
53867;SDS011;41577;47.470;19.080;2023-02-05T00:51:01;12.65;;;3.60;;
53867;SDS011;41577;47.470;19.080;2023-02-05T00:51:11;10.80;;;3.28;;
53867;SDS011;41577;47.470;19.080;2023-02-05T00:51:23;4.05;;;3.20;;
53867;SDS011;41577;47.470;19.080;2023-02-05T00:51:34;3.75;;;3.05;;
53867;SDS011;41577;47.470;19.080;2023-02-05T00:51:46;3.72;;;2.95;;
53867;SDS011;41577;47.470;19.080;2023-02-05T00:51:57;3.65;;;2.92;;
53867;SDS011;41577;47.470;19.080;2023-02-05T00:52:08;3.70;;;2.85;;
53867;SDS011;41577;47.470;19.080;2023-02-05T00:52:19;3.78;;;2.90;;
53867;SDS011;41577;47.470;19.080;2023-02-05T00:52:30;4.20;;;3.10;;
53867;SDS011;41577;47.470;19.080;2023-02-05T00:52:41;4.55;;;3.30;;
53867;SDS011;41577;47.470;19.080;2023-02-05T00:52:53;4.38;;;3.28;;
53867;SDS011;41577;47.470;19.080;2023-02-05T00:53:04;4.77;;;3.20;;
53867;SDS011;41577;47.470;19.080;2023-02-05T00:53:15;5.90;;;3.35;;
53867;SDS011;41577;47.470;19.080;2023-02-05T00:53:26;6.05;;;3.45;;
53867;SDS011;41577;47.470;19.080;2023-02-05T00:53:37;4.47;;;3.25;;
53867;SDS011;41577;47.470;19.080;2023-02-05T00:53:48;4.53;;;3.20;;
53867;SDS011;41577;47.470;19.080;2023-02-05T00:53:59;6.05;;;3.08;;
53867;SDS011;41577;47.470;19.080;2023-02-05T00:54:09;6.03;;;3.38;;
53867;SDS011;41577;47.470;19.080;2023-02-05T00:54:20;4.53;;;3.30;;
53867;SDS011;41577;47.470;19.080;2023-02-05T00:54:32;4.20;;;3.25;;
53867;SDS011;41577;47.470;19.080;2023-02-05T00:54:42;4.05;;;3.10;;
53867;SDS011;41577;47.470;19.080;2023-02-05T00:54:53;4.38;;;3.10;;
53867;SDS011;41577;47.470;19.080;2023-02-05T00:55:04;4.40;;;3.20;;
53867;SDS011;41577;47.470;19.080;2023-02-05T00:55:16;4.78;;;3.17;;
53867;SDS011;41577;47.470;19.080;2023-02-05T00:55:28;5.25;;;3.10;;
53867;SDS011;41577;47.470;19.080;2023-02-05T00:55:39;4.72;;;2.95;;
53867;SDS011;41577;47.470;19.080;2023-02-05T00:55:50;4.13;;;2.83;;
53867;SDS011;41577;47.470;19.080;2023-02-05T00:56:01;3.87;;;3.03;;
53867;SDS011;41577;47.470;19.080;2023-02-05T00:56:12;4.33;;;3.20;;
53867;SDS011;41577;47.470;19.080;2023-02-05T00:56:23;4.14;;;3.20;;
53867;SDS011;41577;47.470;19.080;2023-02-05T00:56:34;3.53;;;2.90;;
53867;SDS011;41577;47.470;19.080;2023-02-05T00:56:46;3.33;;;2.80;;
53867;SDS011;41577;47.470;19.080;2023-02-05T00:56:56;5.15;;;3.13;;
53867;SDS011;41577;47.470;19.080;2023-02-05T00:57:08;5.60;;;3.00;;
53867;SDS011;41577;47.470;19.080;2023-02-05T00:57:18;5.13;;;2.85;;
53867;SDS011;41577;47.470;19.080;2023-02-05T00:57:29;3.85;;;2.60;;
53867;SDS011;41577;47.470;19.080;2023-02-05T00:57:40;5.18;;;2.72;;
53867;SDS011;41577;47.470;19.080;2023-02-05T00:57:52;5.97;;;3.10;;
53867;SDS011;41577;47.470;19.080;2023-02-05T00:58:03;6.32;;;3.50;;
53867;SDS011;41577;47.470;19.080;2023-02-05T00:58:14;7.70;;;3.58;;
53867;SDS011;41577;47.470;19.080;2023-02-05T00:58:25;7.73;;;3.30;;
53867;SDS011;41577;47.470;19.080;2023-02-05T00:58:37;6.47;;;3.17;;
53867;SDS011;41577;47.470;19.080;2023-02-05T00:58:47;4.75;;;3.00;;
53867;SDS011;41577;47.470;19.080;2023-02-05T00:58:58;3.72;;;2.97;;
53867;SDS011;41577;47.470;19.080;2023-02-05T00:59:09;3.80;;;2.87;;
53867;SDS011;41577;47.470;19.080;2023-02-05T00:59:20;4.20;;;3.00;;
53867;SDS011;41577;47.470;19.080;2023-02-05T00:59:32;4.55;;;3.10;;
53867;SDS011;41577;47.470;19.080;2023-02-05T00:59:43;4.75;;;3.30;;
53867;SDS011;41577;47.470;19.080;2023-02-05T00:59:55;4.22;;;2.97;;
53867;SDS011;41577;47.470;19.080;2023-02-05T01:00:06;4.78;;;2.90;;
53867;SDS011;41577;47.470;19.080;2023-02-05T01:00:19;5.07;;;3.00;;
53867;SDS011;41577;47.470;19.080;2023-02-05T01:00:30;5.90;;;3.00;;
53867;SDS011;41577;47.470;19.080;2023-02-05T01:00:41;5.75;;;3.13;;
53867;SDS011;41577;47.470;19.080;2023-02-05T01:00:52;5.40;;;3.00;;
53867;SDS011;41577;47.470;19.080;2023-02-05T01:01:03;3.58;;;2.83;;
53867;SDS011;41577;47.470;19.080;2023-02-05T01:01:16;3.17;;;2.88;;
53867;SDS011;41577;47.470;19.080;2023-02-05T01:01:27;3.58;;;3.22;;
53867;SDS011;41577;47.470;19.080;2023-02-05T01:01:39;6.95;;;3.22;;
53867;SDS011;41577;47.470;19.080;2023-02-05T01:01:49;8.27;;;2.83;;
53867;SDS011;41577;47.470;19.080;2023-02-05T01:02:00;8.98;;;2.80;;
53867;SDS011;41577;47.470;19.080;2023-02-05T01:02:12;7.82;;;3.05;;
53867;SDS011;41577;47.470;19.080;2023-02-05T01:02:23;8.18;;;3.20;;
53867;SDS011;41577;47.470;19.080;2023-02-05T01:02:34;6.30;;;3.10;;
53867;SDS011;41577;47.470;19.080;2023-02-05T01:02:45;5.72;;;3.10;;
53867;SDS011;41577;47.470;19.080;2023-02-05T01:02:56;4.47;;;3.03;;
53867;SDS011;41577;47.470;19.080;2023-02-05T01:03:07;4.30;;;2.88;;
53867;SDS011;41577;47.470;19.080;2023-02-05T01:03:18;4.25;;;2.90;;
53867;SDS011;41577;47.470;19.080;2023-02-05T01:03:29;4.53;;;2.97;;
53867;SDS011;41577;47.470;19.080;2023-02-05T01:03:40;5.10;;;3.08;;
53867;SDS011;41577;47.470;19.080;2023-02-05T01:03:51;4.72;;;3.08;;
53867;SDS011;41577;47.470;19.080;2023-02-05T01:04:03;4.55;;;2.90;;
53867;SDS011;41577;47.470;19.080;2023-02-05T01:04:14;5.72;;;3.15;;
53867;SDS011;41577;47.470;19.080;2023-02-05T01:04:25;5.47;;;3.08;;
53867;SDS011;41577;47.470;19.080;2023-02-05T01:04:37;4.18;;;2.90;;
53867;SDS011;41577;47.470;19.080;2023-02-05T01:04:48;4.15;;;2.80;;
53867;SDS011;41577;47.470;19.080;2023-02-05T01:04:59;4.65;;;2.90;;
53867;SDS011;41577;47.470;19.080;2023-02-05T01:05:11;5.25;;;2.97;;
53867;SDS011;41577;47.470;19.080;2023-02-05T01:05:22;4.57;;;2.90;;
53867;SDS011;41577;47.470;19.080;2023-02-05T01:05:32;5.30;;;3.08;;
53867;SDS011;41577;47.470;19.080;2023-02-05T01:05:43;4.50;;;2.97;;
53867;SDS011;41577;47.470;19.080;2023-02-05T01:05:55;6.10;;;2.90;;
53867;SDS011;41577;47.470;19.080;2023-02-05T01:06:06;5.05;;;2.78;;
53867;SDS011;41577;47.470;19.080;2023-02-05T01:06:18;14.55;;;2.70;;
53867;SDS011;41577;47.470;19.080;2023-02-05T01:06:29;13.75;;;2.83;;
53867;SDS011;41577;47.470;19.080;2023-02-05T01:06:40;5.10;;;3.05;;
53867;SDS011;41577;47.470;19.080;2023-02-05T01:06:53;4.63;;;2.90;;